sensor_id;sensor_type;location;lat;lon;timestamp;P1;durP1;ratioP1;P2;durP2;ratioP2
19877;SDS011;10101;52.204;9.910;2023-10-19T00:00:46;18.53;;;12.67;;
19877;SDS011;10101;52.204;9.910;2023-10-19T00:03:15;17.90;;;11.33;;
19877;SDS011;10101;52.204;9.910;2023-10-19T00:05:41;15.83;;;10.37;;
19877;SDS011;10101;52.204;9.910;2023-10-19T00:08:11;15.53;;;10.93;;
19877;SDS011;10101;52.204;9.910;2023-10-19T00:10:43;17.67;;;12.03;;
19877;SDS011;10101;52.204;9.910;2023-10-19T00:13:13;19.00;;;12.57;;
19877;SDS011;10101;52.204;9.910;2023-10-19T00:15:40;16.13;;;12.30;;
19877;SDS011;10101;52.204;9.910;2023-10-19T00:18:13;15.53;;;10.97;;
19877;SDS011;10101;52.204;9.910;2023-10-19T00:20:46;17.90;;;12.67;;
19877;SDS011;10101;52.204;9.910;2023-10-19T00:23:20;21.87;;;13.13;;
19877;SDS011;10101;52.204;9.910;2023-10-19T00:25:56;21.70;;;13.43;;
19877;SDS011;10101;52.204;9.910;2023-10-19T00:28:23;19.63;;;13.40;;
19877;SDS011;10101;52.204;9.910;2023-10-19T00:30:52;20.03;;;13.33;;
19877;SDS011;10101;52.204;9.910;2023-10-19T00:33:18;19.07;;;12.93;;
19877;SDS011;10101;52.204;9.910;2023-10-19T00:35:46;20.97;;;13.50;;
19877;SDS011;10101;52.204;9.910;2023-10-19T00:38:23;22.00;;;13.73;;
19877;SDS011;10101;52.204;9.910;2023-10-19T00:41:06;20.90;;;13.77;;
19877;SDS011;10101;52.204;9.910;2023-10-19T00:43:39;22.70;;;14.10;;
19877;SDS011;10101;52.204;9.910;2023-10-19T00:46:09;19.10;;;14.33;;
19877;SDS011;10101;52.204;9.910;2023-10-19T00:48:40;18.93;;;13.47;;
19877;SDS011;10101;52.204;9.910;2023-10-19T00:51:11;20.43;;;13.67;;
19877;SDS011;10101;52.204;9.910;2023-10-19T00:53:53;22.20;;;14.53;;
19877;SDS011;10101;52.204;9.910;2023-10-19T00:56:21;20.23;;;13.47;;
19877;SDS011;10101;52.204;9.910;2023-10-19T00:58:51;21.63;;;13.33;;
19877;SDS011;10101;52.204;9.910;2023-10-19T01:01:25;20.20;;;14.20;;
19877;SDS011;10101;52.204;9.910;2023-10-19T01:03:55;23.13;;;15.10;;
19877;SDS011;10101;52.204;9.910;2023-10-19T01:06:23;22.40;;;13.87;;
19877;SDS011;10101;52.204;9.910;2023-10-19T01:08:50;22.03;;;13.93;;
19877;SDS011;10101;52.204;9.910;2023-10-19T01:11:19;22.43;;;13.80;;
19877;SDS011;10101;52.204;9.910;2023-10-19T01:13:47;23.80;;;15.10;;
19877;SDS011;10101;52.204;9.910;2023-10-19T01:16:17;25.30;;;15.43;;
19877;SDS011;10101;52.204;9.910;2023-10-19T01:18:47;19.70;;;13.77;;
19877;SDS011;10101;52.204;9.910;2023-10-19T01:21:18;20.53;;;14.07;;
19877;SDS011;10101;52.204;9.910;2023-10-19T01:23:48;26.53;;;15.20;;
19877;SDS011;10101;52.204;9.910;2023-10-19T01:26:14;24.37;;;16.23;;
19877;SDS011;10101;52.204;9.910;2023-10-19T01:28:47;20.80;;;14.70;;
19877;SDS011;10101;52.204;9.910;2023-10-19T01:31:16;20.20;;;14.13;;
19877;SDS011;10101;52.204;9.910;2023-10-19T01:33:47;25.90;;;15.93;;
19877;SDS011;10101;52.204;9.910;2023-10-19T01:36:15;21.53;;;14.70;;
19877;SDS011;10101;52.204;9.910;2023-10-19T01:38:51;22.00;;;14.63;;
19877;SDS011;10101;52.204;9.910;2023-10-19T01:41:19;23.50;;;14.70;;
19877;SDS011;10101;52.204;9.910;2023-10-19T01:43:47;23.17;;;14.83;;
19877;SDS011;10101;52.204;9.910;2023-10-19T01:46:15;24.70;;;15.03;;
19877;SDS011;10101;52.204;9.910;2023-10-19T01:48:47;22.50;;;14.37;;
19877;SDS011;10101;52.204;9.910;2023-10-19T01:51:19;22.77;;;14.87;;
19877;SDS011;10101;52.204;9.910;2023-10-19T01:53:46;22.23;;;14.80;;
19877;SDS011;10101;52.204;9.910;2023-10-19T01:56:15;22.53;;;14.73;;
19877;SDS011;10101;52.204;9.910;2023-10-19T01:58:42;22.77;;;14.60;;
19877;SDS011;10101;52.204;9.910;2023-10-19T02:01:11;22.00;;;14.83;;
19877;SDS011;10101;52.204;9.910;2023-10-19T02:03:44;21.13;;;14.60;;
19877;SDS011;10101;52.204;9.910;2023-10-19T02:06:12;21.27;;;15.03;;
19877;SDS011;10101;52.204;9.910;2023-10-19T02:08:44;21.57;;;14.63;;
19877;SDS011;10101;52.204;9.910;2023-10-19T02:11:15;21.20;;;15.20;;
19877;SDS011;10101;52.204;9.910;2023-10-19T02:13:43;20.27;;;14.33;;
19877;SDS011;10101;52.204;9.910;2023-10-19T02:16:11;21.30;;;14.33;;
19877;SDS011;10101;52.204;9.910;2023-10-19T02:18:37;22.07;;;16.37;;
19877;SDS011;10101;52.204;9.910;2023-10-19T02:21:05;21.20;;;15.30;;
19877;SDS011;10101;52.204;9.910;2023-10-19T02:23:32;23.43;;;15.97;;
19877;SDS011;10101;52.204;9.910;2023-10-19T02:26:00;22.77;;;15.47;;
19877;SDS011;10101;52.204;9.910;2023-10-19T02:28:29;22.73;;;15.37;;
19877;SDS011;10101;52.204;9.910;2023-10-19T02:30:57;22.00;;;15.30;;
19877;SDS011;10101;52.204;9.910;2023-10-19T02:33:35;24.77;;;15.57;;
19877;SDS011;10101;52.204;9.910;2023-10-19T02:36:03;23.23;;;15.30;;
19877;SDS011;10101;52.204;9.910;2023-10-19T02:38:29;23.77;;;16.03;;
19877;SDS011;10101;52.204;9.910;2023-10-19T02:40:58;23.10;;;15.43;;
19877;SDS011;10101;52.204;9.910;2023-10-19T02:43:24;22.67;;;15.60;;
19877;SDS011;10101;52.204;9.910;2023-10-19T02:45:52;23.30;;;16.73;;
19877;SDS011;10101;52.204;9.910;2023-10-19T02:48:18;24.07;;;17.33;;
19877;SDS011;10101;52.204;9.910;2023-10-19T02:50:45;25.40;;;17.53;;
19877;SDS011;10101;52.204;9.910;2023-10-19T02:53:11;23.63;;;16.30;;
19877;SDS011;10101;52.204;9.910;2023-10-19T02:55:38;24.53;;;16.87;;
19877;SDS011;10101;52.204;9.910;2023-10-19T02:58:06;24.67;;;16.83;;
19877;SDS011;10101;52.204;9.910;2023-10-19T03:00:32;27.53;;;17.73;;
19877;SDS011;10101;52.204;9.910;2023-10-19T03:03:00;24.10;;;16.60;;
19877;SDS011;10101;52.204;9.910;2023-10-19T03:05:30;20.57;;;15.30;;
19877;SDS011;10101;52.204;9.910;2023-10-19T03:07:57;24.53;;;15.77;;
19877;SDS011;10101;52.204;9.910;2023-10-19T03:10:22;22.53;;;16.13;;
19877;SDS011;10101;52.204;9.910;2023-10-19T03:12:59;23.77;;;15.70;;
19877;SDS011;10101;52.204;9.910;2023-10-19T03:15:25;22.90;;;15.63;;
19877;SDS011;10101;52.204;9.910;2023-10-19T03:17:55;22.73;;;15.80;;
19877;SDS011;10101;52.204;9.910;2023-10-19T03:20:22;22.90;;;16.70;;
19877;SDS011;10101;52.204;9.910;2023-10-19T03:22:50;22.23;;;15.33;;
19877;SDS011;10101;52.204;9.910;2023-10-19T03:25:16;23.30;;;16.17;;
19877;SDS011;10101;52.204;9.910;2023-10-19T03:28:03;21.47;;;15.23;;
19877;SDS011;10101;52.204;9.910;2023-10-19T03:30:33;24.93;;;16.93;;
19877;SDS011;10101;52.204;9.910;2023-10-19T03:33:03;21.57;;;15.37;;
19877;SDS011;10101;52.204;9.910;2023-10-19T03:35:32;24.47;;;16.83;;
19877;SDS011;10101;52.204;9.910;2023-10-19T03:38:00;23.37;;;15.10;;
19877;SDS011;10101;52.204;9.910;2023-10-19T03:40:33;21.23;;;14.93;;
19877;SDS011;10101;52.204;9.910;2023-10-19T03:43:03;21.97;;;15.20;;
19877;SDS011;10101;52.204;9.910;2023-10-19T03:45:42;21.13;;;14.57;;
19877;SDS011;10101;52.204;9.910;2023-10-19T03:48:15;21.73;;;15.70;;
19877;SDS011;10101;52.204;9.910;2023-10-19T03:50:44;21.77;;;14.80;;
19877;SDS011;10101;52.204;9.910;2023-10-19T03:53:13;19.97;;;14.00;;
19877;SDS011;10101;52.204;9.910;2023-10-19T03:55:40;21.13;;;15.00;;
19877;SDS011;10101;52.204;9.910;2023-10-19T03:58:08;21.17;;;14.90;;
19877;SDS011;10101;52.204;9.910;2023-10-19T04:00:37;20.07;;;14.03;;
19877;SDS011;10101;52.204;9.910;2023-10-19T04:03:04;20.63;;;14.13;;
19877;SDS011;10101;52.204;9.910;2023-10-19T04:05:30;19.73;;;14.13;;
19877;SDS011;10101;52.204;9.910;2023-10-19T04:08:04;19.15;;;13.20;;
19877;SDS011;10101;52.204;9.910;2023-10-19T04:10:38;20.37;;;14.13;;
19877;SDS011;10101;52.204;9.910;2023-10-19T04:13:09;22.20;;;15.67;;
19877;SDS011;10101;52.204;9.910;2023-10-19T04:15:37;19.47;;;14.23;;
19877;SDS011;10101;52.204;9.910;2023-10-19T04:18:04;20.20;;;14.40;;
19877;SDS011;10101;52.204;9.910;2023-10-19T04:20:34;19.43;;;14.17;;
19877;SDS011;10101;52.204;9.910;2023-10-19T04:23:08;19.83;;;14.70;;
19877;SDS011;10101;52.204;9.910;2023-10-19T04:25:39;20.77;;;13.90;;
19877;SDS011;10101;52.204;9.910;2023-10-19T04:28:06;19.30;;;13.67;;
19877;SDS011;10101;52.204;9.910;2023-10-19T04:30:34;21.50;;;14.43;;
19877;SDS011;10101;52.204;9.910;2023-10-19T04:33:02;18.53;;;13.10;;
19877;SDS011;10101;52.204;9.910;2023-10-19T04:35:34;20.70;;;13.63;;
19877;SDS011;10101;52.204;9.910;2023-10-19T04:38:01;16.97;;;12.50;;
19877;SDS011;10101;52.204;9.910;2023-10-19T04:40:32;18.10;;;12.83;;
19877;SDS011;10101;52.204;9.910;2023-10-19T04:43:01;18.87;;;12.30;;
19877;SDS011;10101;52.204;9.910;2023-10-19T04:45:29;16.20;;;12.03;;
19877;SDS011;10101;52.204;9.910;2023-10-19T04:47:55;16.90;;;12.13;;
19877;SDS011;10101;52.204;9.910;2023-10-19T04:50:23;15.97;;;11.40;;
19877;SDS011;10101;52.204;9.910;2023-10-19T04:52:50;15.23;;;11.60;;
19877;SDS011;10101;52.204;9.910;2023-10-19T04:55:16;15.33;;;11.23;;
19877;SDS011;10101;52.204;9.910;2023-10-19T04:57:45;15.40;;;10.70;;
19877;SDS011;10101;52.204;9.910;2023-10-19T05:00:12;15.63;;;11.73;;
19877;SDS011;10101;52.204;9.910;2023-10-19T05:02:40;13.83;;;11.00;;
19877;SDS011;10101;52.204;9.910;2023-10-19T05:05:07;15.10;;;11.00;;
19877;SDS011;10101;52.204;9.910;2023-10-19T05:07:34;15.13;;;10.70;;
19877;SDS011;10101;52.204;9.910;2023-10-19T05:10:01;12.47;;;10.00;;
19877;SDS011;10101;52.204;9.910;2023-10-19T05:12:30;12.47;;;10.00;;
19877;SDS011;10101;52.204;9.910;2023-10-19T05:14:58;14.60;;;10.00;;
19877;SDS011;10101;52.204;9.910;2023-10-19T05:17:25;14.53;;;10.90;;
19877;SDS011;10101;52.204;9.910;2023-10-19T05:19:52;11.93;;;9.70;;
19877;SDS011;10101;52.204;9.910;2023-10-19T05:22:19;15.73;;;10.67;;
19877;SDS011;10101;52.204;9.910;2023-10-19T05:24:46;14.60;;;10.13;;
19877;SDS011;10101;52.204;9.910;2023-10-19T05:27:13;13.90;;;10.17;;
19877;SDS011;10101;52.204;9.910;2023-10-19T05:29:40;13.50;;;11.00;;
19877;SDS011;10101;52.204;9.910;2023-10-19T05:43:27;13.17;;;11.13;;
19877;SDS011;10101;52.204;9.910;2023-10-19T05:45:55;15.97;;;11.30;;
19877;SDS011;10101;52.204;9.910;2023-10-19T05:48:22;12.67;;;9.70;;
19877;SDS011;10101;52.204;9.910;2023-10-19T05:50:50;12.33;;;9.87;;
19877;SDS011;10101;52.204;9.910;2023-10-19T05:53:17;11.83;;;9.63;;
19877;SDS011;10101;52.204;9.910;2023-10-19T05:55:44;12.93;;;9.30;;
19877;SDS011;10101;52.204;9.910;2023-10-19T05:58:10;12.87;;;9.47;;
19877;SDS011;10101;52.204;9.910;2023-10-19T06:00:39;12.07;;;9.60;;
19877;SDS011;10101;52.204;9.910;2023-10-19T06:03:05;12.87;;;9.57;;
19877;SDS011;10101;52.204;9.910;2023-10-19T06:05:32;14.03;;;9.07;;
19877;SDS011;10101;52.204;9.910;2023-10-19T06:07:59;12.17;;;8.53;;
19877;SDS011;10101;52.204;9.910;2023-10-19T06:10:27;11.53;;;8.57;;
19877;SDS011;10101;52.204;9.910;2023-10-19T06:12:55;13.23;;;8.10;;
19877;SDS011;10101;52.204;9.910;2023-10-19T06:15:22;10.60;;;8.23;;
19877;SDS011;10101;52.204;9.910;2023-10-19T06:17:51;10.43;;;8.30;;
19877;SDS011;10101;52.204;9.910;2023-10-19T06:20:18;9.47;;;7.60;;
19877;SDS011;10101;52.204;9.910;2023-10-19T06:22:51;9.13;;;7.23;;
19877;SDS011;10101;52.204;9.910;2023-10-19T06:25:19;9.23;;;7.37;;
19877;SDS011;10101;52.204;9.910;2023-10-19T06:27:47;8.73;;;7.30;;
19877;SDS011;10101;52.204;9.910;2023-10-19T06:30:15;9.17;;;6.60;;
19877;SDS011;10101;52.204;9.910;2023-10-19T06:32:47;8.20;;;6.73;;
19877;SDS011;10101;52.204;9.910;2023-10-19T06:35:16;7.77;;;6.73;;
19877;SDS011;10101;52.204;9.910;2023-10-19T06:37:43;9.50;;;6.63;;
19877;SDS011;10101;52.204;9.910;2023-10-19T06:40:11;7.97;;;6.43;;
19877;SDS011;10101;52.204;9.910;2023-10-19T06:42:40;8.47;;;6.87;;
19877;SDS011;10101;52.204;9.910;2023-10-19T06:45:07;9.57;;;7.50;;
19877;SDS011;10101;52.204;9.910;2023-10-19T06:47:35;8.10;;;6.40;;
19877;SDS011;10101;52.204;9.910;2023-10-19T06:50:03;8.00;;;6.27;;
19877;SDS011;10101;52.204;9.910;2023-10-19T06:52:34;8.40;;;6.77;;
19877;SDS011;10101;52.204;9.910;2023-10-19T06:55:02;8.57;;;6.37;;
19877;SDS011;10101;52.204;9.910;2023-10-19T06:57:29;6.57;;;5.87;;
19877;SDS011;10101;52.204;9.910;2023-10-19T06:59:56;8.43;;;6.70;;
19877;SDS011;10101;52.204;9.910;2023-10-19T07:02:23;6.93;;;6.00;;
19877;SDS011;10101;52.204;9.910;2023-10-19T07:04:51;7.67;;;6.13;;
19877;SDS011;10101;52.204;9.910;2023-10-19T07:07:18;8.07;;;6.50;;
19877;SDS011;10101;52.204;9.910;2023-10-19T07:09:46;7.33;;;5.90;;
19877;SDS011;10101;52.204;9.910;2023-10-19T07:12:12;7.60;;;6.03;;
19877;SDS011;10101;52.204;9.910;2023-10-19T07:14:39;7.67;;;6.33;;
19877;SDS011;10101;52.204;9.910;2023-10-19T07:17:06;6.90;;;6.20;;
19877;SDS011;10101;52.204;9.910;2023-10-19T07:19:33;7.83;;;5.90;;
19877;SDS011;10101;52.204;9.910;2023-10-19T07:22:00;8.80;;;6.67;;
19877;SDS011;10101;52.204;9.910;2023-10-19T07:24:29;9.60;;;5.83;;
19877;SDS011;10101;52.204;9.910;2023-10-19T07:26:57;8.57;;;6.43;;
19877;SDS011;10101;52.204;9.910;2023-10-19T07:29:32;7.73;;;6.63;;
19877;SDS011;10101;52.204;9.910;2023-10-19T07:32:01;7.70;;;6.27;;
19877;SDS011;10101;52.204;9.910;2023-10-19T07:34:31;8.73;;;6.73;;
19877;SDS011;10101;52.204;9.910;2023-10-19T07:36:58;8.03;;;6.90;;
19877;SDS011;10101;52.204;9.910;2023-10-19T07:39:26;7.23;;;6.03;;
19877;SDS011;10101;52.204;9.910;2023-10-19T07:41:55;6.77;;;5.83;;
19877;SDS011;10101;52.204;9.910;2023-10-19T07:44:24;7.07;;;5.80;;
19877;SDS011;10101;52.204;9.910;2023-10-19T07:46:50;6.90;;;6.03;;
19877;SDS011;10101;52.204;9.910;2023-10-19T07:49:18;6.93;;;5.60;;
19877;SDS011;10101;52.204;9.910;2023-10-19T07:51:47;7.10;;;5.90;;
19877;SDS011;10101;52.204;9.910;2023-10-19T07:54:14;6.97;;;5.50;;
19877;SDS011;10101;52.204;9.910;2023-10-19T07:56:41;6.53;;;5.27;;
19877;SDS011;10101;52.204;9.910;2023-10-19T07:59:09;7.13;;;5.40;;
19877;SDS011;10101;52.204;9.910;2023-10-19T08:01:38;7.33;;;5.40;;
19877;SDS011;10101;52.204;9.910;2023-10-19T08:04:05;6.00;;;5.03;;
19877;SDS011;10101;52.204;9.910;2023-10-19T08:06:32;6.13;;;5.10;;
19877;SDS011;10101;52.204;9.910;2023-10-19T08:08:59;6.60;;;5.63;;
19877;SDS011;10101;52.204;9.910;2023-10-19T08:11:26;6.67;;;5.63;;
19877;SDS011;10101;52.204;9.910;2023-10-19T08:13:52;7.40;;;5.87;;
19877;SDS011;10101;52.204;9.910;2023-10-19T08:16:20;8.30;;;6.00;;
19877;SDS011;10101;52.204;9.910;2023-10-19T08:18:49;7.60;;;5.87;;
19877;SDS011;10101;52.204;9.910;2023-10-19T08:21:17;8.27;;;6.07;;
19877;SDS011;10101;52.204;9.910;2023-10-19T08:23:44;7.53;;;5.90;;
19877;SDS011;10101;52.204;9.910;2023-10-19T08:26:12;5.97;;;5.27;;
19877;SDS011;10101;52.204;9.910;2023-10-19T08:28:40;7.23;;;5.80;;
19877;SDS011;10101;52.204;9.910;2023-10-19T08:31:07;6.40;;;5.50;;
19877;SDS011;10101;52.204;9.910;2023-10-19T08:33:35;6.80;;;5.83;;
19877;SDS011;10101;52.204;9.910;2023-10-19T08:36:05;7.00;;;5.90;;
19877;SDS011;10101;52.204;9.910;2023-10-19T08:38:41;6.60;;;5.30;;
19877;SDS011;10101;52.204;9.910;2023-10-19T08:41:08;6.67;;;5.73;;
19877;SDS011;10101;52.204;9.910;2023-10-19T08:43:35;7.17;;;5.20;;
19877;SDS011;10101;52.204;9.910;2023-10-19T08:46:04;6.90;;;5.77;;
19877;SDS011;10101;52.204;9.910;2023-10-19T08:48:33;6.57;;;5.80;;
19877;SDS011;10101;52.204;9.910;2023-10-19T08:50:59;6.43;;;5.63;;
19877;SDS011;10101;52.204;9.910;2023-10-19T08:53:29;7.20;;;5.80;;
19877;SDS011;10101;52.204;9.910;2023-10-19T08:55:57;7.23;;;6.00;;
19877;SDS011;10101;52.204;9.910;2023-10-19T08:58:26;6.10;;;5.50;;
19877;SDS011;10101;52.204;9.910;2023-10-19T09:00:52;6.87;;;5.90;;
19877;SDS011;10101;52.204;9.910;2023-10-19T09:03:20;7.30;;;6.23;;
19877;SDS011;10101;52.204;9.910;2023-10-19T09:05:47;6.57;;;5.57;;
19877;SDS011;10101;52.204;9.910;2023-10-19T09:08:14;7.27;;;6.23;;
19877;SDS011;10101;52.204;9.910;2023-10-19T09:10:44;7.30;;;6.20;;
19877;SDS011;10101;52.204;9.910;2023-10-19T09:13:11;7.77;;;6.23;;
19877;SDS011;10101;52.204;9.910;2023-10-19T09:15:41;6.40;;;5.63;;
19877;SDS011;10101;52.204;9.910;2023-10-19T09:18:14;7.53;;;6.17;;
19877;SDS011;10101;52.204;9.910;2023-10-19T09:20:43;8.17;;;6.67;;
19877;SDS011;10101;52.204;9.910;2023-10-19T09:23:19;7.87;;;6.33;;
19877;SDS011;10101;52.204;9.910;2023-10-19T09:25:49;7.73;;;6.47;;
19877;SDS011;10101;52.204;9.910;2023-10-19T09:28:17;11.27;;;7.27;;
19877;SDS011;10101;52.204;9.910;2023-10-19T09:30:44;8.07;;;6.40;;
19877;SDS011;10101;52.204;9.910;2023-10-19T09:33:13;8.37;;;6.80;;
19877;SDS011;10101;52.204;9.910;2023-10-19T09:35:42;8.97;;;7.03;;
19877;SDS011;10101;52.204;9.910;2023-10-19T09:38:13;8.67;;;7.00;;
19877;SDS011;10101;52.204;9.910;2023-10-19T09:40:39;8.33;;;6.73;;
19877;SDS011;10101;52.204;9.910;2023-10-19T09:43:11;8.10;;;6.60;;
19877;SDS011;10101;52.204;9.910;2023-10-19T09:45:42;7.10;;;6.00;;
19877;SDS011;10101;52.204;9.910;2023-10-19T09:48:16;7.77;;;6.53;;
19877;SDS011;10101;52.204;9.910;2023-10-19T09:50:45;8.53;;;6.97;;
19877;SDS011;10101;52.204;9.910;2023-10-19T09:53:20;8.90;;;6.77;;
19877;SDS011;10101;52.204;9.910;2023-10-19T09:55:49;8.30;;;6.50;;
19877;SDS011;10101;52.204;9.910;2023-10-19T09:58:23;8.63;;;6.40;;
19877;SDS011;10101;52.204;9.910;2023-10-19T10:00:52;8.80;;;6.90;;
19877;SDS011;10101;52.204;9.910;2023-10-19T10:06:10;7.87;;;7.03;;
19877;SDS011;10101;52.204;9.910;2023-10-19T10:08:39;9.47;;;7.77;;
19877;SDS011;10101;52.204;9.910;2023-10-19T10:11:14;9.63;;;8.40;;
19877;SDS011;10101;52.204;9.910;2023-10-19T10:13:44;9.73;;;7.77;;
19877;SDS011;10101;52.204;9.910;2023-10-19T10:16:16;8.60;;;7.20;;
19877;SDS011;10101;52.204;9.910;2023-10-19T10:18:45;8.80;;;6.63;;
19877;SDS011;10101;52.204;9.910;2023-10-19T10:21:14;8.67;;;6.23;;
19877;SDS011;10101;52.204;9.910;2023-10-19T10:23:42;7.73;;;6.60;;
19877;SDS011;10101;52.204;9.910;2023-10-19T10:26:10;7.43;;;6.43;;
19877;SDS011;10101;52.204;9.910;2023-10-19T10:28:38;7.73;;;6.60;;
19877;SDS011;10101;52.204;9.910;2023-10-19T10:31:08;8.23;;;6.50;;
19877;SDS011;10101;52.204;9.910;2023-10-19T10:33:38;7.27;;;6.50;;
19877;SDS011;10101;52.204;9.910;2023-10-19T10:36:06;8.30;;;6.60;;
19877;SDS011;10101;52.204;9.910;2023-10-19T10:38:34;8.10;;;7.13;;
19877;SDS011;10101;52.204;9.910;2023-10-19T10:41:02;7.20;;;6.40;;
19877;SDS011;10101;52.204;9.910;2023-10-19T10:43:30;7.07;;;6.37;;
19877;SDS011;10101;52.204;9.910;2023-10-19T10:46:04;9.30;;;6.77;;
19877;SDS011;10101;52.204;9.910;2023-10-19T10:48:33;7.13;;;6.43;;
19877;SDS011;10101;52.204;9.910;2023-10-19T10:51:14;7.13;;;6.23;;
19877;SDS011;10101;52.204;9.910;2023-10-19T10:53:41;8.07;;;6.93;;
19877;SDS011;10101;52.204;9.910;2023-10-19T10:56:08;7.50;;;6.70;;
19877;SDS011;10101;52.204;9.910;2023-10-19T10:58:35;9.10;;;6.87;;
19877;SDS011;10101;52.204;9.910;2023-10-19T11:01:02;8.63;;;6.90;;
19877;SDS011;10101;52.204;9.910;2023-10-19T11:03:28;8.07;;;6.50;;
19877;SDS011;10101;52.204;9.910;2023-10-19T11:05:56;8.23;;;7.33;;
19877;SDS011;10101;52.204;9.910;2023-10-19T11:08:29;8.73;;;6.80;;
19877;SDS011;10101;52.204;9.910;2023-10-19T11:11:01;8.60;;;7.47;;
19877;SDS011;10101;52.204;9.910;2023-10-19T11:13:29;8.43;;;6.90;;
19877;SDS011;10101;52.204;9.910;2023-10-19T11:15:58;9.70;;;7.27;;
19877;SDS011;10101;52.204;9.910;2023-10-19T11:18:29;12.87;;;7.67;;
19877;SDS011;10101;52.204;9.910;2023-10-19T11:20:59;9.20;;;7.47;;
19877;SDS011;10101;52.204;9.910;2023-10-19T11:23:42;8.67;;;7.47;;
19877;SDS011;10101;52.204;9.910;2023-10-19T11:26:10;9.83;;;7.90;;
19877;SDS011;10101;52.204;9.910;2023-10-19T11:28:39;10.23;;;7.13;;
19877;SDS011;10101;52.204;9.910;2023-10-19T11:31:15;9.13;;;7.13;;
19877;SDS011;10101;52.204;9.910;2023-10-19T11:33:44;10.90;;;7.80;;
19877;SDS011;10101;52.204;9.910;2023-10-19T11:36:14;10.43;;;8.07;;
19877;SDS011;10101;52.204;9.910;2023-10-19T11:38:42;10.13;;;8.43;;
19877;SDS011;10101;52.204;9.910;2023-10-19T11:41:10;10.97;;;7.77;;
19877;SDS011;10101;52.204;9.910;2023-10-19T11:43:38;9.60;;;7.77;;
19877;SDS011;10101;52.204;9.910;2023-10-19T11:46:05;9.77;;;8.17;;
19877;SDS011;10101;52.204;9.910;2023-10-19T11:48:32;11.53;;;8.40;;
19877;SDS011;10101;52.204;9.910;2023-10-19T11:51:00;14.30;;;8.33;;
19877;SDS011;10101;52.204;9.910;2023-10-19T11:53:30;10.07;;;8.33;;
19877;SDS011;10101;52.204;9.910;2023-10-19T11:55:59;10.37;;;7.70;;
19877;SDS011;10101;52.204;9.910;2023-10-19T11:58:28;12.77;;;8.40;;
19877;SDS011;10101;52.204;9.910;2023-10-19T12:00:57;10.93;;;8.10;;
19877;SDS011;10101;52.204;9.910;2023-10-19T12:03:24;9.50;;;7.97;;
19877;SDS011;10101;52.204;9.910;2023-10-19T12:05:51;10.70;;;8.17;;
19877;SDS011;10101;52.204;9.910;2023-10-19T12:08:20;10.90;;;8.20;;
19877;SDS011;10101;52.204;9.910;2023-10-19T12:10:48;10.93;;;7.73;;
19877;SDS011;10101;52.204;9.910;2023-10-19T12:13:16;12.93;;;8.30;;
19877;SDS011;10101;52.204;9.910;2023-10-19T12:15:46;12.73;;;8.00;;
19877;SDS011;10101;52.204;9.910;2023-10-19T12:18:18;10.37;;;7.97;;
19877;SDS011;10101;52.204;9.910;2023-10-19T12:20:45;10.73;;;8.20;;
19877;SDS011;10101;52.204;9.910;2023-10-19T12:23:12;10.57;;;8.03;;
19877;SDS011;10101;52.204;9.910;2023-10-19T12:25:39;9.00;;;7.57;;
19877;SDS011;10101;52.204;9.910;2023-10-19T12:28:08;10.27;;;8.03;;
19877;SDS011;10101;52.204;9.910;2023-10-19T12:30:39;11.17;;;7.93;;
19877;SDS011;10101;52.204;9.910;2023-10-19T12:33:06;11.40;;;7.97;;
19877;SDS011;10101;52.204;9.910;2023-10-19T12:35:36;13.10;;;8.70;;
19877;SDS011;10101;52.204;9.910;2023-10-19T12:38:16;11.87;;;8.77;;
19877;SDS011;10101;52.204;9.910;2023-10-19T12:40:45;10.43;;;8.07;;
19877;SDS011;10101;52.204;9.910;2023-10-19T12:43:14;10.67;;;7.87;;
19877;SDS011;10101;52.204;9.910;2023-10-19T12:45:43;9.63;;;7.60;;
19877;SDS011;10101;52.204;9.910;2023-10-19T12:48:15;10.20;;;7.83;;
19877;SDS011;10101;52.204;9.910;2023-10-19T12:50:43;10.60;;;8.10;;
19877;SDS011;10101;52.204;9.910;2023-10-19T12:53:09;12.40;;;7.83;;
19877;SDS011;10101;52.204;9.910;2023-10-19T12:55:36;12.43;;;8.30;;
19877;SDS011;10101;52.204;9.910;2023-10-19T12:58:04;9.60;;;7.83;;
19877;SDS011;10101;52.204;9.910;2023-10-19T13:00:36;12.03;;;8.17;;
19877;SDS011;10101;52.204;9.910;2023-10-19T13:03:06;12.90;;;8.70;;
19877;SDS011;10101;52.204;9.910;2023-10-19T13:05:33;11.83;;;8.70;;
19877;SDS011;10101;52.204;9.910;2023-10-19T13:08:02;10.83;;;8.27;;
19877;SDS011;10101;52.204;9.910;2023-10-19T13:10:31;12.40;;;8.53;;
19877;SDS011;10101;52.204;9.910;2023-10-19T13:13:01;11.90;;;8.80;;
19877;SDS011;10101;52.204;9.910;2023-10-19T13:15:29;12.17;;;9.33;;
19877;SDS011;10101;52.204;9.910;2023-10-19T13:17:58;14.80;;;9.77;;
19877;SDS011;10101;52.204;9.910;2023-10-19T13:20:25;11.87;;;8.77;;
19877;SDS011;10101;52.204;9.910;2023-10-19T13:22:53;12.50;;;9.47;;
19877;SDS011;10101;52.204;9.910;2023-10-19T13:25:21;13.57;;;9.77;;
19877;SDS011;10101;52.204;9.910;2023-10-19T13:28:04;14.43;;;9.47;;
19877;SDS011;10101;52.204;9.910;2023-10-19T13:30:35;14.77;;;10.77;;
19877;SDS011;10101;52.204;9.910;2023-10-19T13:33:05;14.30;;;10.47;;
19877;SDS011;10101;52.204;9.910;2023-10-19T13:35:32;16.03;;;10.63;;
19877;SDS011;10101;52.204;9.910;2023-10-19T13:37:59;19.87;;;13.13;;
19877;SDS011;10101;52.204;9.910;2023-10-19T13:40:26;20.53;;;12.83;;
19877;SDS011;10101;52.204;9.910;2023-10-19T13:42:55;18.43;;;12.90;;
19877;SDS011;10101;52.204;9.910;2023-10-19T13:45:21;21.33;;;13.30;;
19877;SDS011;10101;52.204;9.910;2023-10-19T13:47:48;19.40;;;13.13;;
19877;SDS011;10101;52.204;9.910;2023-10-19T13:50:17;22.47;;;14.33;;
19877;SDS011;10101;52.204;9.910;2023-10-19T13:52:44;20.70;;;13.87;;
19877;SDS011;10101;52.204;9.910;2023-10-19T13:55:11;19.33;;;13.17;;
19877;SDS011;10101;52.204;9.910;2023-10-19T13:57:42;22.80;;;13.43;;
19877;SDS011;10101;52.204;9.910;2023-10-19T14:00:09;21.50;;;13.90;;
19877;SDS011;10101;52.204;9.910;2023-10-19T14:02:44;20.30;;;13.60;;
19877;SDS011;10101;52.204;9.910;2023-10-19T14:05:11;22.60;;;13.87;;
19877;SDS011;10101;52.204;9.910;2023-10-19T14:07:39;24.87;;;15.43;;
19877;SDS011;10101;52.204;9.910;2023-10-19T14:10:06;22.87;;;15.43;;
19877;SDS011;10101;52.204;9.910;2023-10-19T14:12:37;24.30;;;14.23;;
19877;SDS011;10101;52.204;9.910;2023-10-19T14:15:07;24.33;;;15.47;;
19877;SDS011;10101;52.204;9.910;2023-10-19T14:17:36;27.13;;;15.57;;
19877;SDS011;10101;52.204;9.910;2023-10-19T14:20:03;26.87;;;15.40;;
19877;SDS011;10101;52.204;9.910;2023-10-19T14:22:30;26.10;;;15.37;;
19877;SDS011;10101;52.204;9.910;2023-10-19T14:25:00;25.20;;;16.03;;
19877;SDS011;10101;52.204;9.910;2023-10-19T14:27:27;23.87;;;15.83;;
19877;SDS011;10101;52.204;9.910;2023-10-19T14:29:55;24.63;;;15.13;;
19877;SDS011;10101;52.204;9.910;2023-10-19T14:32:22;26.87;;;15.13;;
19877;SDS011;10101;52.204;9.910;2023-10-19T14:34:49;23.93;;;14.33;;
19877;SDS011;10101;52.204;9.910;2023-10-19T14:37:15;26.73;;;15.53;;
19877;SDS011;10101;52.204;9.910;2023-10-19T14:39:42;23.70;;;14.67;;
19877;SDS011;10101;52.204;9.910;2023-10-19T14:42:11;24.63;;;14.97;;
19877;SDS011;10101;52.204;9.910;2023-10-19T14:44:38;24.10;;;15.47;;
19877;SDS011;10101;52.204;9.910;2023-10-19T14:47:05;24.63;;;15.57;;
19877;SDS011;10101;52.204;9.910;2023-10-19T14:49:31;23.17;;;15.03;;
19877;SDS011;10101;52.204;9.910;2023-10-19T14:51:58;22.70;;;14.57;;
19877;SDS011;10101;52.204;9.910;2023-10-19T14:54:25;21.73;;;14.50;;
19877;SDS011;10101;52.204;9.910;2023-10-19T14:56:53;22.97;;;14.67;;